Time;durP1;ratioP1;P1;durP2;ratioP2;P2;SDS_P1;SDS_P2;PMS_P1;PMS_P2;Temp;Humidity;BMP_temperature;BMP_pressure;BME280_temperature;BME280_humidity;BME280_pressure;Samples;Min_cycle;Max_cycle;Signal;HPM_P1;HPM_P2
2022/06/29 00:00:49;;;;;;;7.90;7.40;;;23.70;73.40;;;;;;4995561;28;20367;-90
2022/06/29 00:03:15;;;;;;;8.27;7.68;;;23.70;73.20;;;;;;5020434;28;20209;-90
2022/06/29 00:05:41;;;;;;;8.35;7.88;;;23.70;74.20;;;;;;5022139;28;20774;-90
2022/06/29 00:08:07;;;;;;;8.77;8.05;;;23.70;74.90;;;;;;5020144;28;20205;-90
2022/06/29 00:10:33;;;;;;;8.73;8.23;;;23.60;74.50;;;;;;5022279;28;20221;-89
2022/06/29 00:13:00;;;;;;;8.60;8.20;;;23.70;74.40;;;;;;5024528;28;20241;-89
2022/06/29 00:15:26;;;;;;;8.13;7.78;;;23.70;75.10;;;;;;5023519;28;20223;-90
2022/06/29 00:21:20;;;;;;;7.80;7.38;;;23.70;74.50;;;;;;5022130;28;20239;-90
2022/06/29 00:23:45;;;;;;;8.07;7.55;;;23.70;73.00;;;;;;5045495;22;20236;-86
2022/06/29 00:26:11;;;;;;;9.15;8.55;;;23.70;74.70;;;;;;5041289;28;20288;-85
2022/06/29 00:28:37;;;;;;;8.52;7.95;;;23.70;74.40;;;;;;5041789;28;20694;-86
2022/06/29 00:31:03;;;;;;;8.65;8.15;;;23.60;75.70;;;;;;5023968;28;20268;-84
2022/06/29 00:33:29;;;;;;;8.60;8.20;;;23.50;75.70;;;;;;5028610;28;20587;-85
2022/06/29 00:35:54;;;;;;;8.25;7.75;;;23.60;75.50;;;;;;5016920;28;20185;-85
2022/06/29 00:38:20;;;;;;;7.97;7.57;;;23.70;76.60;;;;;;5024478;28;20521;-83
2022/06/29 00:40:46;;;;;;;9.35;8.60;;;23.70;76.20;;;;;;5036863;28;20193;-82
2022/06/29 00:43:11;;;;;;;8.55;7.88;;;23.60;76.30;;;;;;5017168;28;20212;-86
2022/06/29 00:45:37;;;;;;;8.65;8.27;;;23.60;76.30;;;;;;5021797;28;20239;-85
2022/06/29 00:48:04;;;;;;;7.70;7.40;;;23.60;76.60;;;;;;5013835;28;20182;-85
2022/06/29 00:50:32;;;;;;;9.45;8.95;;;23.60;77.20;;;;;;5012660;28;20556;-83
2022/06/29 00:53:05;;;;;;;8.73;8.13;;;23.60;77.60;;;;;;5014261;28;20217;-85
2022/06/29 00:55:35;;;;;;;7.93;7.53;;;23.60;77.70;;;;;;5010275;28;20193;-85
2022/06/29 00:58:05;;;;;;;7.47;7.05;;;23.60;78.00;;;;;;5013852;28;20262;-85
2022/06/29 01:00:34;;;;;;;8.70;8.40;;;23.50;78.10;;;;;;5012732;28;20185;-86
2022/06/29 01:03:00;;;;;;;8.18;7.88;;;23.50;77.70;;;;;;5012978;28;20209;-85
2022/06/29 01:05:26;;;;;;;8.30;7.90;;;23.50;77.70;;;;;;5009570;28;20190;-85
2022/06/29 01:07:52;;;;;;;8.43;8.10;;;23.60;77.30;;;;;;5013520;28;20201;-84
2022/06/29 01:10:19;;;;;;;8.38;7.97;;;23.50;78.70;;;;;;5021761;28;20293;-85
2022/06/29 01:12:49;;;;;;;6.90;6.57;;;23.40;79.60;;;;;;5017848;28;20210;-84
2022/06/29 01:15:15;;;;;;;8.40;7.85;;;23.30;79.10;;;;;;5013169;28;20688;-85
2022/06/29 01:17:40;;;;;;;7.93;7.43;;;23.40;79.60;;;;;;5000220;28;20198;-86
2022/06/29 01:20:08;;;;;;;8.27;7.75;;;23.40;79.80;;;;;;5017714;28;20200;-86
2022/06/29 01:22:34;;;;;;;7.95;7.32;;;23.30;79.40;;;;;;5010620;28;20233;-85
2022/06/29 01:25:00;;;;;;;8.85;8.32;;;23.30;79.40;;;;;;5011447;28;20240;-86
2022/06/29 01:27:26;;;;;;;8.23;7.70;;;23.30;78.70;;;;;;4992650;28;20296;-86
2022/06/29 01:29:53;;;;;;;7.97;7.57;;;23.40;78.70;;;;;;5016535;28;20656;-85
2022/06/29 01:32:19;;;;;;;7.57;7.07;;;23.30;78.80;;;;;;5020895;28;20209;-86
2022/06/29 01:34:45;;;;;;;7.93;7.53;;;23.30;79.10;;;;;;4995462;28;20209;-85
2022/06/29 01:37:11;;;;;;;8.60;8.05;;;23.40;79.40;;;;;;5001694;28;20186;-86
2022/06/29 01:39:37;;;;;;;8.23;7.70;;;23.40;79.00;;;;;;5020495;28;20212;-85
2022/06/29 01:42:04;;;;;;;7.85;7.40;;;23.30;78.40;;;;;;5003290;28;20220;-85
2022/06/29 01:44:30;;;;;;;7.70;7.30;;;23.30;78.40;;;;;;5016458;28;20229;-85
2022/06/29 01:46:55;;;;;;;8.68;8.27;;;23.30;78.90;;;;;;5020678;28;20206;-86
2022/06/29 01:49:23;;;;;;;8.27;7.75;;;23.30;78.90;;;;;;5007572;28;20217;-83
2022/06/29 01:51:49;;;;;;;8.10;7.60;;;23.30;78.40;;;;;;5020518;28;20190;-85
2022/06/29 01:54:15;;;;;;;7.90;7.28;;;23.30;78.30;;;;;;5023534;28;20205;-85
2022/06/29 01:56:41;;;;;;;8.73;8.27;;;23.30;78.20;;;;;;4995700;28;20185;-85
2022/06/29 01:59:07;;;;;;;8.10;7.70;;;23.30;77.30;;;;;;5005644;28;20254;-86
2022/06/29 02:01:32;;;;;;;7.68;7.28;;;23.20;78.40;;;;;;5015353;28;20182;-85
2022/06/29 02:03:58;;;;;;;8.80;8.10;;;23.30;79.40;;;;;;5020318;28;20229;-86
2022/06/29 02:06:25;;;;;;;7.82;7.22;;;23.30;78.50;;;;;;5019377;28;20194;-84
2022/06/29 02:08:52;;;;;;;8.07;7.57;;;23.30;78.00;;;;;;5027235;28;20186;-86
2022/06/29 02:11:19;;;;;;;7.63;7.32;;;23.30;77.40;;;;;;5012710;28;20214;-86
2022/06/29 02:13:48;;;;;;;8.65;8.23;;;23.30;77.30;;;;;;5006883;28;20216;-85
2022/06/29 02:16:14;;;;;;;7.85;7.35;;;23.40;77.00;;;;;;5022751;28;20205;-87
2022/06/29 02:18:43;;;;;;;8.10;7.40;;;23.30;78.10;;;;;;5014758;28;20182;-86
2022/06/29 02:21:09;;;;;;;8.27;7.78;;;23.30;78.70;;;;;;5019928;28;20197;-85
2022/06/29 02:23:35;;;;;;;8.43;7.82;;;23.30;79.90;;;;;;5019880;28;20284;-85
2022/06/29 02:26:01;;;;;;;8.25;7.90;;;23.20;79.30;;;;;;4999780;28;20191;-85
2022/06/29 02:28:27;;;;;;;8.02;7.57;;;23.20;80.60;;;;;;5015188;28;20250;-84
2022/06/29 02:36:22;;;;;;;7.35;6.85;;;23.20;80.50;;;;;;5021336;28;20196;-85
2022/06/29 02:38:48;;;;;;;8.75;8.05;;;23.30;79.90;;;;;;5001373;28;20253;-85
2022/06/29 02:41:13;;;;;;;7.45;6.78;;;23.20;80.00;;;;;;5012618;28;20177;-84
2022/06/29 02:43:39;;;;;;;8.27;7.80;;;23.20;80.10;;;;;;5015234;28;20224;-83
2022/06/29 02:46:05;;;;;;;7.60;7.20;;;23.20;80.20;;;;;;5011771;28;20191;-85
2022/06/29 02:48:32;;;;;;;7.05;6.75;;;23.10;80.10;;;;;;5010017;28;20186;-85
2022/06/29 02:50:59;;;;;;;7.63;7.30;;;23.10;79.90;;;;;;5016138;28;20188;-85
2022/06/29 02:53:25;;;;;;;7.65;7.20;;;23.10;80.70;;;;;;5013131;28;20213;-85
2022/06/29 02:55:51;;;;;;;8.50;7.70;;;23.10;80.70;;;;;;5013409;28;20205;-83
2022/06/29 02:58:17;;;;;;;7.53;7.03;;;23.10;80.90;;;;;;4999369;28;20194;-84
2022/06/29 03:00:42;;;;;;;8.13;7.45;;;23.00;81.10;;;;;;5008603;28;20214;-85
2022/06/29 03:03:08;;;;;;;8.15;7.75;;;23.00;81.30;;;;;;5015209;28;20233;-83
2022/06/29 03:05:34;;;;;;;8.65;8.27;;;22.90;81.30;;;;;;4994900;28;20904;-85
2022/06/29 03:07:59;;;;;;;8.25;7.75;;;23.00;81.10;;;;;;5009195;28;20722;-84
2022/06/29 03:10:25;;;;;;;7.38;6.97;;;22.90;82.20;;;;;;4997021;28;20276;-86
2022/06/29 03:12:51;;;;;;;7.78;7.30;;;22.80;82.70;;;;;;5018254;28;20771;-85
2022/06/29 03:15:18;;;;;;;7.90;7.40;;;22.90;82.90;;;;;;5010177;28;20190;-85
2022/06/29 03:17:43;;;;;;;7.38;6.90;;;22.90;82.70;;;;;;4997549;28;20587;-85
2022/06/29 03:20:10;;;;;;;8.00;7.60;;;22.90;82.60;;;;;;4995428;28;20201;-85
2022/06/29 03:22:36;;;;;;;7.80;7.30;;;22.90;83.10;;;;;;5010874;28;20221;-85
2022/06/29 03:25:04;;;;;;;7.78;7.28;;;22.90;83.80;;;;;;5010985;28;20565;-85
2022/06/29 03:27:32;;;;;;;7.15;6.72;;;22.90;84.40;;;;;;5011937;28;20197;-85
2022/06/29 03:29:58;;;;;;;7.95;7.53;;;22.70;85.80;;;;;;5024636;28;20178;-81
2022/06/29 03:32:23;;;;;;;6.72;6.25;;;22.70;86.40;;;;;;5034184;28;20203;-81
2022/06/29 03:34:49;;;;;;;8.05;7.45;;;22.70;86.50;;;;;;5005565;28;20291;-85
2022/06/29 03:37:15;;;;;;;8.23;7.72;;;22.50;87.20;;;;;;5016543;28;20193;-85
2022/06/29 03:39:41;;;;;;;7.10;6.70;;;22.50;87.20;;;;;;5011898;28;20680;-85
2022/06/29 03:42:07;;;;;;;7.40;6.97;;;22.70;87.40;;;;;;5009185;28;20281;-85
2022/06/29 03:44:33;;;;;;;8.05;7.60;;;22.70;86.70;;;;;;4990232;28;20834;-85
2022/06/29 03:46:59;;;;;;;7.05;6.60;;;22.80;86.90;;;;;;5009540;28;20284;-85
2022/06/29 03:49:24;;;;;;;7.30;6.80;;;22.70;87.10;;;;;;5002646;28;20193;-85
2022/06/29 03:51:50;;;;;;;8.07;7.68;;;22.70;87.00;;;;;;4984812;28;20187;-85
2022/06/29 03:54:16;;;;;;;8.20;7.70;;;22.80;86.70;;;;;;5017837;28;20747;-84
2022/06/29 03:56:41;;;;;;;7.35;6.95;;;22.70;88.10;;;;;;5022236;28;20190;-85
2022/06/29 03:59:07;;;;;;;7.97;7.32;;;22.70;87.90;;;;;;5014989;28;20198;-83
2022/06/29 04:01:33;;;;;;;7.07;6.65;;;22.70;87.60;;;;;;4993503;28;20197;-84
2022/06/29 04:03:58;;;;;;;7.43;7.03;;;22.70;87.80;;;;;;5008111;28;21134;-84
2022/06/29 04:06:24;;;;;;;8.40;8.00;;;22.60;88.40;;;;;;5013786;28;20193;-85
2022/06/29 04:08:50;;;;;;;7.65;7.22;;;22.60;89.00;;;;;;5019747;28;20204;-87
2022/06/29 04:13:59;;;;;;;6.82;6.53;;;22.50;90.00;;;;;;5022578;28;20259;-85
2022/06/29 04:16:25;;;;;;;6.97;6.68;;;22.50;90.40;;;;;;5022616;28;20201;-85
2022/06/29 04:18:51;;;;;;;8.00;7.32;;;22.40;91.00;;;;;;5006312;28;20204;-87
2022/06/29 04:21:17;;;;;;;8.07;7.35;;;22.40;90.20;;;;;;4982307;28;20194;-85
2022/06/29 04:23:42;;;;;;;7.15;6.70;;;22.50;89.60;;;;;;5015989;28;20289;-86
2022/06/29 04:26:08;;;;;;;7.30;6.80;;;22.50;88.20;;;;;;4996658;28;20198;-86
2022/06/29 04:28:34;;;;;;;7.22;6.82;;;22.50;86.50;;;;;;5009534;28;20189;-85
2022/06/29 04:31:01;;;;;;;6.47;5.93;;;22.50;83.70;;;;;;5015274;28;20194;-85
2022/06/29 04:33:26;;;;;;;6.57;6.05;;;22.50;82.60;;;;;;5020260;28;20205;-85
2022/06/29 04:35:52;;;;;;;6.63;6.22;;;22.50;82.50;;;;;;5006442;28;20738;-85
2022/06/29 04:38:18;;;;;;;7.70;7.30;;;22.50;84.60;;;;;;5005362;28;20193;-85
2022/06/29 04:40:44;;;;;;;7.05;6.65;;;22.40;85.60;;;;;;5023017;28;20200;-85
2022/06/29 04:43:10;;;;;;;7.63;7.13;;;22.50;85.90;;;;;;5022696;28;20205;-86
2022/06/29 04:48:20;;;;;;;7.45;6.88;;;22.50;86.00;;;;;;5021058;28;20192;-85
2022/06/29 04:50:45;;;;;;;7.25;6.75;;;22.50;87.20;;;;;;5023132;28;20213;-85
2022/06/29 04:53:12;;;;;;;7.63;7.13;;;22.50;85.50;;;;;;5003456;28;20209;-86
2022/06/29 04:55:37;;;;;;;6.63;6.22;;;22.50;85.00;;;;;;5035102;28;20220;-85
2022/06/29 04:58:03;;;;;;;7.53;6.95;;;22.50;84.70;;;;;;5022420;28;20280;-84
2022/06/29 05:00:29;;;;;;;7.95;7.55;;;22.50;85.70;;;;;;5002464;28;20193;-84
2022/06/29 05:02:54;;;;;;;7.57;6.97;;;22.50;86.10;;;;;;5016795;28;20209;-84
2022/06/29 05:05:20;;;;;;;7.70;7.20;;;22.50;86.20;;;;;;5019075;28;20194;-84
2022/06/29 05:07:47;;;;;;;7.13;6.45;;;22.50;86.30;;;;;;5009454;28;20198;-84
2022/06/29 05:10:12;;;;;;;7.40;6.90;;;22.70;84.90;;;;;;4994461;28;20262;-85
2022/06/29 05:12:38;;;;;;;9.38;8.40;;;22.80;88.50;;;;;;5014166;28;20210;-84
2022/06/29 05:15:06;;;;;;;6.65;6.25;;;22.80;88.80;;;;;;5026331;28;20181;-84
2022/06/29 05:17:36;;;;;;;7.72;7.22;;;22.80;87.80;;;;;;5025921;28;20671;-85
2022/06/29 05:20:11;;;;;;;7.45;7.10;;;22.90;86.50;;;;;;5026500;28;20332;-86
2022/06/29 05:22:37;;;;;;;7.88;7.32;;;22.90;85.90;;;;;;5024065;28;20212;-83
2022/06/29 05:25:03;;;;;;;8.15;7.65;;;22.90;84.70;;;;;;5025840;28;20247;-85
2022/06/29 05:27:29;;;;;;;8.10;7.40;;;23.00;83.40;;;;;;5019185;28;20710;-86
2022/06/29 05:29:54;;;;;;;7.75;7.35;;;23.00;83.00;;;;;;5027753;28;20249;-85
2022/06/29 05:32:20;;;;;;;7.68;7.28;;;23.00;82.60;;;;;;5010520;28;20225;-86
2022/06/29 05:34:46;;;;;;;7.68;7.18;;;22.90;83.30;;;;;;5027215;28;20186;-86
2022/06/29 05:37:12;;;;;;;9.40;8.98;;;22.80;84.60;;;;;;5021572;28;20249;-85
2022/06/29 05:39:37;;;;;;;9.95;9.35;;;22.60;83.10;;;;;;5026109;28;20185;-86
2022/06/29 05:42:04;;;;;;;9.45;8.95;;;22.20;86.50;;;;;;5022063;28;20194;-85
2022/06/29 05:44:29;;;;;;;8.93;8.40;;;22.20;86.90;;;;;;5022083;28;20236;-86
2022/06/29 05:46:55;;;;;;;9.38;8.65;;;22.30;86.00;;;;;;5026054;28;20201;-85
2022/06/29 05:49:21;;;;;;;8.20;7.70;;;22.40;85.00;;;;;;5027334;28;20190;-86
2022/06/29 05:51:46;;;;;;;9.85;9.15;;;22.50;84.60;;;;;;5039352;28;20185;-85
2022/06/29 05:54:12;;;;;;;10.77;10.13;;;22.40;85.00;;;;;;4993347;28;20704;-84
2022/06/29 05:56:38;;;;;;;10.20;9.32;;;22.40;85.60;;;;;;5015352;28;20607;-85
2022/06/29 05:59:03;;;;;;;9.55;8.88;;;22.40;86.20;;;;;;5026412;28;20216;-83
2022/06/29 06:01:29;;;;;;;10.25;9.55;;;22.30;85.80;;;;;;5020699;28;20669;-84
2022/06/29 06:03:55;;;;;;;11.32;10.55;;;22.20;85.60;;;;;;5013274;28;20221;-84
2022/06/29 06:06:21;;;;;;;9.88;9.27;;;22.20;86.60;;;;;;5018895;28;20617;-84
2022/06/29 06:08:46;;;;;;;10.93;10.15;;;22.10;86.80;;;;;;5025286;28;20627;-83
2022/06/29 06:11:12;;;;;;;10.70;10.00;;;22.20;88.00;;;;;;5015344;28;20186;-83
2022/06/29 06:13:38;;;;;;;10.50;9.80;;;22.10;87.20;;;;;;5001583;28;20228;-84
2022/06/29 06:16:04;;;;;;;10.30;9.73;;;22.20;85.70;;;;;;5025812;28;20196;-83
2022/06/29 06:18:30;;;;;;;9.93;9.43;;;22.30;86.20;;;;;;5037243;28;20238;-83
2022/06/29 06:20:55;;;;;;;9.73;9.13;;;22.20;86.00;;;;;;5036847;28;20197;-83
2022/06/29 06:23:21;;;;;;;10.07;9.40;;;22.20;85.40;;;;;;5015623;28;20249;-83
2022/06/29 06:25:47;;;;;;;10.25;9.55;;;22.20;87.10;;;;;;5017287;28;20189;-83
2022/06/29 06:28:12;;;;;;;8.85;8.35;;;22.40;86.80;;;;;;5019181;28;20189;-83
2022/06/29 06:30:38;;;;;;;11.13;10.43;;;22.40;87.30;;;;;;4992350;28;20263;-83
2022/06/29 06:33:04;;;;;;;10.50;9.80;;;22.40;89.10;;;;;;5016597;28;20228;-83
2022/06/29 06:35:30;;;;;;;11.75;10.93;;;22.50;89.10;;;;;;5010959;28;20194;-83
2022/06/29 06:37:56;;;;;;;10.65;9.90;;;22.60;90.70;;;;;;5020567;28;20186;-84
2022/06/29 06:43:06;;;;;;;9.93;9.23;;;22.80;87.50;;;;;;5014072;28;20616;-84
2022/06/29 06:45:32;;;;;;;10.00;9.40;;;22.80;89.20;;;;;;5018801;28;20648;-84
2022/06/29 06:47:57;;;;;;;10.27;9.68;;;22.90;88.20;;;;;;5022704;28;20240;-83
2022/06/29 06:50:26;;;;;;;9.23;8.73;;;23.10;88.40;;;;;;5029059;28;20329;-83
2022/06/29 06:52:51;;;;;;;9.38;8.75;;;23.30;87.90;;;;;;5027847;28;20202;-83
2022/06/29 06:55:17;;;;;;;9.48;8.98;;;23.40;86.00;;;;;;5002531;28;20257;-83
2022/06/29 06:57:43;;;;;;;10.63;9.93;;;23.30;86.60;;;;;;5022374;28;20195;-83
2022/06/29 07:00:12;;;;;;;10.40;9.50;;;23.40;86.40;;;;;;5024596;28;20190;-83
2022/06/29 07:02:38;;;;;;;8.65;8.15;;;23.50;87.00;;;;;;5024172;28;20265;-84
2022/06/29 07:05:04;;;;;;;9.13;8.63;;;23.60;84.40;;;;;;5018150;28;20233;-83
2022/06/29 07:07:30;;;;;;;9.80;9.05;;;23.60;86.10;;;;;;5024537;28;20316;-82
2022/06/29 07:09:55;;;;;;;10.05;9.48;;;23.40;84.30;;;;;;5020106;28;20198;-83
2022/06/29 07:12:21;;;;;;;11.45;10.63;;;23.30;85.50;;;;;;5021938;28;20745;-83
2022/06/29 07:14:47;;;;;;;11.27;10.68;;;23.30;86.90;;;;;;5008666;28;20196;-83
2022/06/29 07:17:13;;;;;;;8.88;8.38;;;23.40;84.00;;;;;;5023038;28;20182;-83
2022/06/29 07:19:38;;;;;;;9.30;8.70;;;23.70;84.20;;;;;;5019789;28;20203;-83
2022/06/29 07:22:05;;;;;;;9.13;8.55;;;23.70;83.50;;;;;;5004002;28;20193;-84
2022/06/29 07:24:31;;;;;;;8.63;8.13;;;23.80;80.40;;;;;;5014268;28;20839;-83
2022/06/29 07:26:57;;;;;;;8.68;7.97;;;23.80;81.20;;;;;;5006686;28;20181;-84
2022/06/29 07:29:23;;;;;;;8.25;7.53;;;23.80;80.90;;;;;;5019790;28;20680;-83
2022/06/29 07:31:48;;;;;;;8.73;8.00;;;23.90;80.40;;;;;;5019718;28;20192;-84
2022/06/29 07:34:14;;;;;;;10.55;9.85;;;23.80;83.60;;;;;;5005286;28;20214;-84
2022/06/29 07:36:40;;;;;;;11.00;10.30;;;23.80;84.60;;;;;;5024778;28;20190;-84
2022/06/29 07:39:06;;;;;;;10.00;9.50;;;23.80;83.20;;;;;;5026572;28;20189;-85
2022/06/29 07:41:31;;;;;;;10.02;9.43;;;23.80;83.10;;;;;;5027676;28;20189;-84
2022/06/29 07:43:57;;;;;;;8.77;8.20;;;23.80;83.20;;;;;;5022974;28;20295;-83
2022/06/29 07:46:23;;;;;;;7.88;7.38;;;24.20;78.70;;;;;;5018425;28;20186;-83
2022/06/29 07:48:50;;;;;;;7.85;7.45;;;24.30;76.70;;;;;;5023169;28;20186;-84
2022/06/29 07:51:16;;;;;;;8.50;8.10;;;24.40;77.70;;;;;;5005701;28;20277;-83
2022/06/29 07:53:42;;;;;;;8.65;8.15;;;24.50;77.70;;;;;;5022952;28;20221;-83
2022/06/29 07:56:07;;;;;;;8.57;7.93;;;24.50;76.60;;;;;;5014466;28;20194;-84
2022/06/29 07:58:33;;;;;;;8.60;8.10;;;24.40;77.10;;;;;;5009268;28;20254;-85
2022/06/29 08:00:59;;;;;;;8.88;8.27;;;24.40;75.80;;;;;;5015904;28;20206;-84
2022/06/29 08:03:25;;;;;;;7.55;7.05;;;24.40;77.70;;;;;;5017886;28;20205;-84
2022/06/29 08:05:50;;;;;;;8.23;7.63;;;24.40;75.90;;;;;;5002261;28;20194;-84
2022/06/29 08:08:17;;;;;;;8.27;7.68;;;24.60;74.50;;;;;;5014116;28;20183;-82
2022/06/29 08:10:42;;;;;;;8.23;7.60;;;24.50;74.50;;;;;;5025901;28;20184;-83
2022/06/29 08:13:08;;;;;;;7.85;7.45;;;24.70;75.90;;;;;;4998607;28;20269;-84
2022/06/29 08:15:34;;;;;;;9.13;8.32;;;24.70;73.60;;;;;;5020046;28;20197;-83
2022/06/29 08:18:00;;;;;;;8.57;8.07;;;24.80;75.70;;;;;;4998375;28;20182;-84
2022/06/29 08:20:28;;;;;;;8.80;8.13;;;24.60;76.50;;;;;;5020420;28;20212;-84
2022/06/29 08:22:54;;;;;;;9.82;9.18;;;24.70;75.00;;;;;;5015942;28;20239;-86
2022/06/29 08:25:20;;;;;;;10.05;9.45;;;24.80;73.70;;;;;;5005359;28;20186;-85
2022/06/29 08:27:54;;;;;;;9.05;8.55;;;24.80;76.00;;;;;;5006257;28;20200;-85
2022/06/29 08:30:20;;;;;;;9.63;9.02;;;24.70;74.10;;;;;;5020432;28;20185;-86
2022/06/29 08:32:46;;;;;;;8.75;8.15;;;24.50;76.70;;;;;;5009947;28;20209;-85
2022/06/29 08:35:14;;;;;;;9.90;9.20;;;24.20;74.20;;;;;;5025633;28;20193;-87
2022/06/29 08:37:40;;;;;;;10.05;9.25;;;24.00;75.40;;;;;;5006062;28;20182;-85
2022/06/29 08:40:11;;;;;;;10.32;9.70;;;24.00;77.20;;;;;;5031388;28;20209;-86
2022/06/29 08:42:38;;;;;;;8.82;8.10;;;24.10;77.70;;;;;;5003385;28;20207;-86
2022/06/29 08:45:05;;;;;;;9.02;8.43;;;24.50;74.50;;;;;;5008149;28;20273;-86
2022/06/29 08:47:30;;;;;;;9.52;8.93;;;24.60;74.00;;;;;;5022381;28;20232;-85
2022/06/29 08:49:56;;;;;;;9.10;8.50;;;24.80;74.40;;;;;;5005525;28;20185;-87
2022/06/29 08:52:25;;;;;;;10.80;10.18;;;25.00;73.00;;;;;;5001011;28;20618;-87
2022/06/29 08:54:53;;;;;;;10.38;9.68;;;25.00;71.50;;;;;;5023665;28;20185;-84
2022/06/29 08:57:21;;;;;;;9.77;9.25;;;24.70;72.80;;;;;;5016744;28;20198;-86
2022/06/29 08:59:47;;;;;;;9.93;9.38;;;24.60;74.60;;;;;;5021575;28;20640;-87
2022/06/29 09:02:13;;;;;;;10.18;9.57;;;24.50;74.50;;;;;;5023177;28;20283;-85
2022/06/29 09:04:40;;;;;;;9.93;9.32;;;24.50;73.70;;;;;;5020485;28;20213;-88
2022/06/29 09:07:06;;;;;;;9.52;8.88;;;24.60;73.80;;;;;;5030466;28;20192;-87
2022/06/29 09:09:51;;;;;;;9.52;8.82;;;24.40;75.20;;;;;;5032759;28;20201;-85
2022/06/29 09:12:20;;;;;;;9.48;8.68;;;24.40;76.90;;;;;;5008949;28;20289;-85
2022/06/29 09:14:46;;;;;;;9.68;8.98;;;24.50;72.00;;;;;;4985482;28;20193;-85
2022/06/29 09:17:11;;;;;;;9.30;8.80;;;24.50;71.80;;;;;;5022131;28;20236;-86
2022/06/29 09:19:37;;;;;;;10.00;9.40;;;24.70;71.50;;;;;;5015266;28;20253;-85
2022/06/29 09:22:04;;;;;;;9.38;8.88;;;24.80;71.40;;;;;;5011727;28;20217;-86
2022/06/29 09:24:34;;;;;;;9.63;9.13;;;24.90;71.80;;;;;;5018080;28;20237;-88
2022/06/29 09:27:06;;;;;;;10.35;9.65;;;25.20;69.40;;;;;;5016912;28;20190;-86
2022/06/29 09:29:35;;;;;;;11.65;10.88;;;25.10;70.00;;;;;;5010520;28;20209;-84
2022/06/29 09:32:04;;;;;;;10.90;10.10;;;25.00;70.70;;;;;;5020024;28;20182;-84
2022/06/29 09:34:40;;;;;;;11.05;10.23;;;25.00;69.50;;;;;;5018763;28;20645;-86
2022/06/29 09:37:14;;;;;;;9.60;9.00;;;24.80;70.90;;;;;;5009491;28;20192;-85
2022/06/29 09:39:48;;;;;;;9.10;8.50;;;24.70;72.70;;;;;;5005322;28;20194;-84
2022/06/29 09:42:22;;;;;;;9.60;8.98;;;25.10;71.40;;;;;;5021708;28;20228;-85
2022/06/29 09:44:48;;;;;;;11.25;10.45;;;25.20;69.40;;;;;;5002116;28;20671;-85
2022/06/29 09:47:16;;;;;;;10.40;9.63;;;25.40;69.40;;;;;;5012341;28;20193;-85
2022/06/29 09:49:44;;;;;;;9.85;9.25;;;25.50;68.60;;;;;;5010710;28;20253;-85
2022/06/29 09:52:11;;;;;;;11.07;10.38;;;25.50;67.90;;;;;;5016971;28;20727;-85
2022/06/29 09:54:47;;;;;;;10.35;9.80;;;25.40;68.80;;;;;;5017390;28;20194;-87
2022/06/29 09:57:13;;;;;;;10.35;9.75;;;25.70;67.40;;;;;;5015566;28;20181;-84
2022/06/29 10:02:35;;;;;;;10.13;9.57;;;25.70;66.70;;;;;;5038477;28;20220;-89
2022/06/29 10:05:06;;;;;;;9.90;9.25;;;25.90;65.00;;;;;;5026460;28;20225;-85
2022/06/29 10:07:34;;;;;;;10.30;9.70;;;25.90;67.70;;;;;;5018015;28;20174;-86
2022/06/29 10:10:01;;;;;;;9.95;9.35;;;25.80;64.90;;;;;;5027187;28;20209;-88
2022/06/29 10:15:38;;;;;;;10.20;9.65;;;26.10;64.50;;;;;;5020664;28;20196;-85
2022/06/29 10:18:14;;;;;;;9.90;9.32;;;26.30;65.90;;;;;;5025813;28;20257;-85
2022/06/29 10:20:48;;;;;;;11.20;10.60;;;25.80;67.50;;;;;;5016693;28;20543;-85
2022/06/29 10:23:52;;;;;;;10.80;10.10;;;25.70;67.20;;;;;;5003949;28;20225;-85
2022/06/29 10:26:39;;;;;;;10.52;9.93;;;25.70;67.40;;;;;;5024341;28;20613;-84
2022/06/29 10:29:05;;;;;;;10.70;10.20;;;25.90;67.30;;;;;;5018462;28;20182;-85
2022/06/29 10:31:52;;;;;;;10.38;9.80;;;26.70;66.00;;;;;;5022857;28;20193;-86
2022/06/29 10:34:32;;;;;;;11.65;10.85;;;27.50;62.80;;;;;;5015439;28;20189;-86
2022/06/29 10:37:05;;;;;;;11.10;10.40;;;27.80;61.30;;;;;;5024830;28;20723;-86
2022/06/29 10:39:49;;;;;;;11.57;10.88;;;27.70;60.30;;;;;;5005201;28;20209;-85
2022/06/29 10:45:08;;;;;;;10.98;10.18;;;27.90;59.20;;;;;;5013769;28;20214;-85
2022/06/29 10:47:38;;;;;;;11.43;10.88;;;28.00;58.80;;;;;;5024219;28;20205;-86
2022/06/29 10:50:20;;;;;;;10.43;9.70;;;27.80;58.60;;;;;;4989691;28;20218;-88
2022/06/29 10:52:47;;;;;;;11.13;10.35;;;28.10;59.10;;;;;;5024490;28;20197;-85
2022/06/29 10:55:15;;;;;;;11.25;10.65;;;27.80;58.80;;;;;;5005295;28;20201;-85
2022/06/29 10:57:44;;;;;;;9.95;9.43;;;28.00;57.90;;;;;;5004900;28;20204;-85
2022/06/29 11:00:20;;;;;;;10.75;10.15;;;28.20;56.90;;;;;;5004959;28;20193;-85
2022/06/29 11:02:46;;;;;;;10.50;9.80;;;28.30;57.60;;;;;;5021340;28;20296;-85
2022/06/29 11:05:12;;;;;;;12.25;11.65;;;28.50;55.30;;;;;;5016069;28;20276;-85
2022/06/29 11:13:12;;;;;;;10.35;9.77;;;28.60;57.10;;;;;;5017414;28;20580;-86
2022/06/29 11:15:47;;;;;;;10.95;10.27;;;29.30;52.90;;;;;;5018413;28;20198;-87
2022/06/29 11:18:15;;;;;;;10.70;9.80;;;29.40;52.50;;;;;;5002651;28;20204;-84
2022/06/29 11:20:42;;;;;;;10.30;9.60;;;29.50;51.10;;;;;;5000674;28;20190;-86
2022/06/29 11:23:12;;;;;;;11.80;11.18;;;29.70;48.60;;;;;;5013957;28;20288;-86
2022/06/29 11:25:39;;;;;;;12.23;11.63;;;29.70;48.40;;;;;;5005632;28;20220;-86
2022/06/29 11:28:05;;;;;;;13.23;12.50;;;29.50;48.10;;;;;;5032994;28;20197;-86
2022/06/29 11:30:31;;;;;;;12.88;12.07;;;29.30;50.50;;;;;;5023312;28;20208;-86
2022/06/29 11:32:57;;;;;;;15.50;14.38;;;29.50;48.50;;;;;;5019938;28;20210;-86
2022/06/29 11:35:26;;;;;;;15.30;14.18;;;29.90;46.50;;;;;;5024620;28;20196;-85
2022/06/29 11:37:54;;;;;;;14.95;14.25;;;30.00;47.20;;;;;;5018872;28;20257;-87
2022/06/29 11:40:29;;;;;;;14.20;13.50;;;30.10;47.60;;;;;;5019617;28;20276;-84
2022/06/29 11:43:09;;;;;;;16.23;15.27;;;30.30;46.30;;;;;;5018278;28;20228;-85
2022/06/29 11:45:45;;;;;;;17.42;16.63;;;30.30;47.90;;;;;;5015387;28;20182;-85
2022/06/29 11:48:11;;;;;;;17.33;16.55;;;30.00;48.50;;;;;;5010398;28;20178;-86
2022/06/29 11:50:53;;;;;;;16.73;15.73;;;30.00;49.00;;;;;;5011299;28;20197;-85
2022/06/29 11:53:41;;;;;;;16.70;15.98;;;30.30;47.70;;;;;;5011708;28;20656;-83
2022/06/29 11:56:15;;;;;;;16.88;16.13;;;30.70;47.20;;;;;;5038473;28;20190;-83
2022/06/29 11:58:50;;;;;;;14.55;13.95;;;30.80;46.50;;;;;;5021575;28;20196;-86
2022/06/29 12:01:18;;;;;;;13.57;12.98;;;31.50;44.30;;;;;;5016042;28;20188;-85
2022/06/29 12:03:48;;;;;;;14.30;13.60;;;31.70;44.30;;;;;;5014922;28;20868;-87
2022/06/29 12:06:14;;;;;;;13.68;13.02;;;32.00;44.90;;;;;;5027824;28;20201;-86
2022/06/29 12:08:41;;;;;;;12.85;12.25;;;32.20;43.70;;;;;;5012420;28;20296;-87
2022/06/29 12:11:06;;;;;;;10.93;10.43;;;32.60;42.70;;;;;;5015059;28;20193;-85
2022/06/29 12:13:32;;;;;;;11.18;10.52;;;32.50;42.50;;;;;;5014507;28;20201;-87
2022/06/29 12:15:58;;;;;;;10.80;10.30;;;32.50;41.70;;;;;;4996832;28;20194;-86
2022/06/29 12:18:24;;;;;;;11.18;10.57;;;32.20;42.70;;;;;;5012905;28;20182;-84
2022/06/29 12:20:50;;;;;;;10.77;10.27;;;31.70;44.30;;;;;;5015534;28;20204;-84
2022/06/29 12:23:16;;;;;;;10.85;10.25;;;31.40;44.50;;;;;;5019574;28;20301;-84
2022/06/29 12:25:42;;;;;;;11.80;10.90;;;31.30;45.20;;;;;;5017699;28;20194;-84
2022/06/29 12:28:08;;;;;;;11.35;10.85;;;31.20;45.40;;;;;;5016427;28;20190;-85
2022/06/29 12:30:34;;;;;;;10.82;10.32;;;31.70;43.80;;;;;;5018165;28;20182;-84
2022/06/29 12:33:00;;;;;;;10.15;9.65;;;32.00;44.00;;;;;;5019423;28;20206;-83
2022/06/29 12:35:26;;;;;;;10.20;9.70;;;32.10;42.70;;;;;;5016292;28;20260;-83
2022/06/29 12:37:57;;;;;;;11.05;10.55;;;32.60;42.80;;;;;;5017249;28;20212;-84
2022/06/29 12:40:24;;;;;;;10.70;10.10;;;33.00;43.20;;;;;;5017943;28;20178;-84
2022/06/29 12:42:51;;;;;;;10.25;9.75;;;32.10;41.00;;;;;;4996416;28;20654;-84
2022/06/29 12:45:17;;;;;;;11.18;10.57;;;32.10;40.60;;;;;;5000260;28;20201;-84
2022/06/29 12:47:42;;;;;;;12.07;11.57;;;32.00;41.60;;;;;;5017786;28;20198;-83
2022/06/29 12:50:08;;;;;;;12.30;11.48;;;32.20;43.60;;;;;;5002300;28;20186;-83
2022/06/29 12:52:34;;;;;;;11.27;10.68;;;32.30;44.00;;;;;;4980965;28;20224;-83
2022/06/29 12:55:00;;;;;;;10.55;9.95;;;32.60;40.20;;;;;;5016244;28;20205;-84
2022/06/29 12:57:28;;;;;;;11.05;10.45;;;33.10;40.30;;;;;;5014976;28;20193;-85
2022/06/29 12:59:54;;;;;;;11.75;11.18;;;33.00;38.70;;;;;;5015580;28;20257;-83
2022/06/29 13:02:21;;;;;;;12.13;11.63;;;32.80;38.80;;;;;;5011968;28;20290;-84
2022/06/29 13:04:48;;;;;;;10.85;10.32;;;32.70;37.60;;;;;;4991573;28;20572;-84
2022/06/29 13:07:14;;;;;;;10.70;10.13;;;32.90;37.10;;;;;;5012125;28;20255;-85
2022/06/29 13:09:39;;;;;;;11.63;11.13;;;33.70;35.90;;;;;;5022490;28;20253;-84
2022/06/29 13:12:05;;;;;;;12.20;11.50;;;33.50;36.90;;;;;;5010454;28;20185;-84